• Join FlightAware (Why Join?)
  • Login
  • US Flag 
12:33PM EST


 

Airport Tracker/Info


-or-


 

Live Flight TrackerFlight Track Log ✈ N813MK ✈ 15-Apr-2013 ✈ KONT - KSEE

Flight Track Log - Related Links

Times and Time Zones

All times are in EDT time to prevent confusion due to time zone crossing. See the N813MK flight status page for this flight to view local times or setup timezone preferences in your user account.

Time Position Orientation Groundspeed Altitude Reporting Facility
EDT Latitude Longitude Course Direction KTS MPH feet Rate Location/Type
09:06AM 34.0000 -117.6000 157° South 212 244 5,200  Level Southern California TRACON
09:07AM 33.9333 -117.5500 148° Southeast 278 320 7,900 1,810 Climbing Southern California TRACON
09:08AM 33.8500 -117.4833 146° Southeast 316 364 9,000 1,010 Climbing Southern California TRACON
09:09AM 33.8156 -117.4444 137° Southeast 324 373 9,600 1,250 Climbing Los Angeles Center
09:10AM 33.7342 -117.3758 145° Southeast 353 406 11,000 645 Climbing Los Angeles Center
09:11AM 33.6720 -117.3943 157° South  Level FlightAware Approximate
09:11AM 33.6403 -117.2983 145° Southeast 399 459 10,900  Level Los Angeles Center
09:12AM 33.5522 -117.2236 145° Southeast 381 438 11,000 49 Climbing Los Angeles Center
09:13AM 33.4733 -117.1608 146° Southeast 368 423 11,000 -148 Level Los Angeles Center
09:14AM 33.3814 -117.1453 172° South 331 381 10,700 -830 Descending Los Angeles Center
09:14AM 33.3167 -117.1333 171° South 320 368 9,700 -1,596 Descending Southern California TRACON
09:15AM 33.2333 -117.1167 171° South 311 358 8,200 -1,488 Descending Southern California TRACON
09:16AM 33.1500 -117.1167 180° South 300 345 6,700 -1,105 Descending Southern California TRACON
09:17AM 33.0833 -117.1000 168° South 266 306 6,100 -1,047 Descending Southern California TRACON
09:19AM 32.9803 -117.0456 156° South 256 295 4,100 -1,231 Descending Los Angeles Center
09:20AM 32.9317 -117.0142 152° Southeast 208 239 2,900 -1,055 Descending Los Angeles Center
09:20AM 32.9167 -117.0000 142° Southeast 152 175 2,500 -1,000 Descending Southern California TRACON
09:21AM 32.8833 -117.0000 180° South 132 152 1,500 -600 Descending Southern California TRACON
09:22AM 32.8500 -116.9833 157° South 126 145 1,300 -75 Descending Southern California TRACON
09:24AM 32.8008 -116.9583 157° South 135 155 1,300 -77 Level Los Angeles Center
09:25AM 32.8394 -116.9575 North 142 163 1,100 -197 Descending Los Angeles Center